Time;durP1;ratioP1;P1;durP2;ratioP2;P2;SDS_P1;SDS_P2;PMS_P1;PMS_P2;Temp;Humidity;BMP_temperature;BMP_pressure;BME280_temperature;BME280_humidity;BME280_pressure;Samples;Min_cycle;Max_cycle;Signal;HPM_P1;HPM_P2
2022/03/14 05:01:05;;;;;;;10.88;6.95;;;2.00;98.50;;;;;;5601453;23;20255;-66
2022/03/14 05:03:32;;;;;;;8.15;6.40;;;1.90;99.60;;;;;;4949541;28;20209;-66
2022/03/14 05:05:59;;;;;;;13.57;7.32;;;1.90;99.60;;;;;;4939177;28;20201;-66
2022/03/14 05:08:25;;;;;;;7.97;5.90;;;1.90;99.90;;;;;;4936890;29;20201;-66
2022/03/14 05:10:52;;;;;;;10.18;7.60;;;1.90;99.90;;;;;;4944302;28;20221;-66
2022/03/14 05:13:20;;;;;;;10.48;7.50;;;1.80;99.90;;;;;;4951772;28;20938;-66
2022/03/14 05:15:46;;;;;;;9.60;7.47;;;1.80;99.90;;;;;;4942162;28;20309;-66
2022/03/14 05:18:15;;;;;;;9.50;7.80;;;1.70;99.90;;;;;;4933727;29;20300;-66
2022/03/14 05:20:41;;;;;;;10.30;7.70;;;1.70;99.90;;;;;;4942645;28;20218;-66
2022/03/14 05:23:08;;;;;;;7.50;6.65;;;1.70;99.90;;;;;;4936972;29;20208;-67
2022/03/14 05:25:35;;;;;;;7.97;6.30;;;1.60;99.90;;;;;;4943133;28;20284;-67
2022/03/14 05:28:02;;;;;;;10.15;6.82;;;1.60;99.90;;;;;;4939797;29;20678;-68
2022/03/14 05:30:28;;;;;;;9.20;6.95;;;1.50;99.90;;;;;;4951615;28;20640;-69
2022/03/14 05:32:56;;;;;;;13.50;7.05;;;1.50;99.90;;;;;;4948752;28;20301;-68
2022/03/14 05:35:24;;;;;;;10.30;7.13;;;1.50;99.90;;;;;;4933060;29;20213;-68
2022/03/14 05:37:51;;;;;;;11.30;7.10;;;1.50;99.90;;;;;;4947101;29;20220;-68
2022/03/14 05:40:20;;;;;;;10.73;7.15;;;1.50;99.90;;;;;;4932726;29;20310;-68
2022/03/14 05:42:48;;;;;;;8.43;6.85;;;1.50;99.90;;;;;;4932856;29;20300;-69
2022/03/14 05:45:16;;;;;;;7.18;6.00;;;1.50;99.90;;;;;;4946527;29;20228;-69
2022/03/14 05:47:43;;;;;;;11.75;6.95;;;1.40;99.90;;;;;;4952614;28;20219;-69
2022/03/14 05:50:10;;;;;;;6.82;6.30;;;1.40;99.90;;;;;;4950776;28;20209;-69
2022/03/14 05:52:40;;;;;;;7.38;6.38;;;1.40;99.90;;;;;;4950752;28;20249;-69
2022/03/14 05:55:08;;;;;;;8.55;7.28;;;1.40;99.90;;;;;;4948536;28;20209;-69
2022/03/14 05:57:35;;;;;;;9.38;7.97;;;1.40;99.90;;;;;;4942252;28;20288;-69
2022/03/14 06:00:02;;;;;;;10.18;7.35;;;1.40;99.90;;;;;;4946839;29;20587;-68
2022/03/14 06:02:29;;;;;;;10.23;7.05;;;1.40;99.90;;;;;;4951298;28;20745;-69
2022/03/14 06:04:56;;;;;;;11.60;7.53;;;1.40;99.90;;;;;;4937404;29;20533;-70
2022/03/14 06:07:23;;;;;;;9.10;8.20;;;1.40;99.90;;;;;;4947621;28;20743;-69
2022/03/14 06:09:51;;;;;;;9.75;7.38;;;1.50;99.90;;;;;;4936323;29;20221;-69
2022/03/14 06:12:25;;;;;;;13.18;7.80;;;1.50;99.90;;;;;;4943849;29;20605;-68
2022/03/14 06:14:53;;;;;;;12.25;7.18;;;1.50;99.90;;;;;;4955328;28;20677;-69
2022/03/14 06:17:21;;;;;;;12.00;7.88;;;1.50;99.90;;;;;;4945428;28;20289;-69
2022/03/14 06:19:47;;;;;;;11.25;8.60;;;1.60;99.90;;;;;;4941919;28;20297;-70
2022/03/14 06:22:15;;;;;;;8.57;7.78;;;1.60;99.90;;;;;;4946528;28;20233;-69
2022/03/14 06:24:42;;;;;;;12.80;8.48;;;1.70;99.90;;;;;;4949251;28;20652;-68
2022/03/14 06:27:10;;;;;;;11.05;7.40;;;1.70;99.90;;;;;;4936177;29;20663;-68
2022/03/14 06:29:37;;;;;;;9.85;8.68;;;1.70;99.90;;;;;;4944895;29;20213;-69
2022/03/14 06:32:05;;;;;;;9.30;8.35;;;1.80;99.90;;;;;;4954459;28;20727;-69
2022/03/14 06:34:31;;;;;;;11.15;8.00;;;1.80;99.90;;;;;;4954265;28;20312;-68
2022/03/14 06:36:58;;;;;;;14.77;9.20;;;1.90;99.90;;;;;;4941780;28;20214;-69
2022/03/14 06:39:25;;;;;;;8.98;7.22;;;2.00;99.90;;;;;;4937455;29;20761;-68
2022/03/14 06:41:51;;;;;;;10.05;8.40;;;2.00;99.90;;;;;;4946257;28;20535;-68
2022/03/14 06:44:19;;;;;;;9.85;8.82;;;2.10;99.90;;;;;;4954492;28;20202;-68
2022/03/14 06:46:47;;;;;;;12.70;8.85;;;2.30;99.90;;;;;;4943330;28;20206;-68
2022/03/14 06:49:16;;;;;;;11.70;9.73;;;2.40;99.90;;;;;;4936304;29;20201;-67
2022/03/14 06:51:42;;;;;;;10.88;7.63;;;2.50;99.90;;;;;;4939073;29;20720;-68
2022/03/14 06:54:09;;;;;;;13.88;8.57;;;2.60;99.90;;;;;;4953967;28;20257;-68
2022/03/14 06:56:37;;;;;;;11.77;7.45;;;2.80;99.90;;;;;;4936343;28;20297;-68
2022/03/14 06:59:04;;;;;;;9.45;7.97;;;2.90;99.40;;;;;;4932758;29;20961;-68
2022/03/14 07:01:32;;;;;;;9.18;8.00;;;3.10;97.90;;;;;;4944544;28;20238;-68
2022/03/14 07:03:59;;;;;;;12.25;6.90;;;3.30;96.60;;;;;;4947934;28;20264;-68
2022/03/14 07:06:26;;;;;;;9.35;6.47;;;3.40;95.90;;;;;;4942595;28;20214;-68
2022/03/14 07:08:52;;;;;;;13.45;6.85;;;3.50;95.00;;;;;;4948991;28;20272;-68
2022/03/14 07:11:19;;;;;;;9.25;7.50;;;3.60;94.50;;;;;;4954443;28;20763;-69
2022/03/14 07:13:46;;;;;;;7.35;5.60;;;3.70;93.60;;;;;;4943463;29;20626;-68
2022/03/14 07:16:12;;;;;;;6.20;5.63;;;3.80;93.10;;;;;;4946375;29;20213;-68
2022/03/14 07:18:40;;;;;;;7.68;6.65;;;4.00;92.60;;;;;;4945609;28;20205;-69
2022/03/14 07:21:07;;;;;;;15.30;5.80;;;4.10;92.00;;;;;;4948273;28;20232;-68
2022/03/14 07:23:34;;;;;;;11.43;9.93;;;4.20;92.10;;;;;;4948811;29;20304;-68
2022/03/14 07:26:01;;;;;;;16.58;9.60;;;4.20;91.60;;;;;;4935210;29;20202;-68
2022/03/14 07:28:27;;;;;;;14.52;10.05;;;4.30;91.70;;;;;;4942275;29;20210;-67
2022/03/14 07:30:54;;;;;;;7.93;5.63;;;4.20;91.90;;;;;;4942691;28;20735;-67
2022/03/14 07:33:21;;;;;;;20.00;10.23;;;4.30;91.10;;;;;;4935919;28;20226;-68
2022/03/14 07:35:49;;;;;;;12.38;8.75;;;4.30;91.10;;;;;;4936318;29;20213;-68
2022/03/14 07:38:16;;;;;;;8.25;7.30;;;4.40;90.80;;;;;;4937125;29;20224;-68
2022/03/14 07:40:43;;;;;;;11.27;7.78;;;4.50;90.30;;;;;;4934912;29;20226;-67
2022/03/14 07:43:10;;;;;;;10.98;8.60;;;4.60;90.70;;;;;;4939572;29;20288;-68
2022/03/14 07:45:36;;;;;;;13.57;8.18;;;4.80;89.30;;;;;;4947405;28;20240;-69
2022/03/14 07:48:03;;;;;;;9.95;8.70;;;4.80;89.10;;;;;;4945465;28;20210;-68
2022/03/14 07:50:30;;;;;;;10.02;8.35;;;4.80;88.90;;;;;;4944593;28;20582;-69
2022/03/14 07:52:58;;;;;;;13.75;9.77;;;4.90;87.70;;;;;;4954072;28;20268;-69
2022/03/14 07:55:25;;;;;;;13.60;9.10;;;4.90;88.10;;;;;;4953312;28;20237;-69
2022/03/14 07:57:52;;;;;;;11.50;8.88;;;4.90;88.30;;;;;;4951081;28;20663;-69
2022/03/14 08:00:20;;;;;;;12.52;7.28;;;4.90;88.60;;;;;;4949402;29;20291;-69
2022/03/14 08:02:48;;;;;;;10.65;8.77;;;5.10;87.80;;;;;;4944584;28;20206;-68
2022/03/14 08:05:16;;;;;;;11.00;8.45;;;5.10;88.30;;;;;;4934839;29;20276;-69
2022/03/14 08:07:47;;;;;;;7.28;6.53;;;5.20;86.80;;;;;;4945893;29;20739;-67
2022/03/14 08:10:18;;;;;;;12.05;8.10;;;5.30;84.70;;;;;;4947123;28;20208;-67
2022/03/14 08:12:47;;;;;;;12.30;9.23;;;5.40;84.60;;;;;;4942461;29;20519;-68
2022/03/14 08:15:19;;;;;;;10.23;9.20;;;5.40;85.10;;;;;;4952232;28;20727;-67
2022/03/14 08:17:46;;;;;;;11.20;9.75;;;5.50;85.30;;;;;;4933857;29;20241;-67
2022/03/14 08:20:13;;;;;;;11.32;10.00;;;5.60;85.50;;;;;;4932577;29;20229;-68
2022/03/14 08:22:40;;;;;;;10.52;9.50;;;5.60;84.70;;;;;;4938208;28;20205;-67
2022/03/14 08:25:08;;;;;;;18.67;12.05;;;5.70;85.50;;;;;;4943285;28;20205;-68
2022/03/14 08:27:36;;;;;;;12.88;9.25;;;5.90;86.40;;;;;;4949230;28;20268;-68
2022/03/14 08:30:04;;;;;;;11.95;8.70;;;6.00;84.20;;;;;;4942230;28;20224;-67
2022/03/14 08:32:31;;;;;;;10.18;9.10;;;5.90;82.80;;;;;;4952403;28;20226;-68
2022/03/14 08:34:58;;;;;;;13.48;10.07;;;6.00;83.50;;;;;;4936183;29;20611;-68
2022/03/14 08:37:26;;;;;;;11.57;9.65;;;6.00;83.30;;;;;;4945608;29;20217;-67
2022/03/14 08:39:52;;;;;;;13.15;8.10;;;6.00;83.80;;;;;;4941346;28;20222;-68
2022/03/14 08:42:19;;;;;;;11.52;9.50;;;6.10;83.10;;;;;;4948575;29;20717;-68
2022/03/14 08:44:47;;;;;;;12.25;9.23;;;6.10;82.90;;;;;;4942521;28;20209;-68
2022/03/14 08:47:14;;;;;;;9.65;8.15;;;6.30;83.10;;;;;;4935586;29;20265;-68
2022/03/14 08:49:40;;;;;;;11.30;9.35;;;6.40;82.40;;;;;;4933476;28;20344;-69
2022/03/14 08:52:07;;;;;;;11.52;8.15;;;6.50;82.00;;;;;;4946040;29;20228;-68
2022/03/14 08:54:34;;;;;;;11.93;10.52;;;6.50;81.90;;;;;;4951764;28;20224;-69
2022/03/14 08:57:01;;;;;;;11.25;9.15;;;6.60;81.90;;;;;;4950128;28;20209;-68
2022/03/14 08:59:27;;;;;;;13.30;9.52;;;6.60;81.50;;;;;;4940318;28;20239;-68
2022/03/14 09:01:55;;;;;;;10.40;9.40;;;6.70;82.50;;;;;;4943274;28;20244;-69
2022/03/14 09:04:22;;;;;;;13.20;10.90;;;6.80;81.80;;;;;;4952230;28;20225;-69
2022/03/14 09:06:49;;;;;;;14.55;10.93;;;6.90;82.30;;;;;;4945564;28;20729;-69
2022/03/14 09:09:15;;;;;;;13.68;10.45;;;6.90;82.20;;;;;;4937056;28;20697;-69
2022/03/14 09:11:44;;;;;;;10.55;9.48;;;7.00;81.30;;;;;;4941512;28;20601;-69
2022/03/14 09:14:10;;;;;;;14.45;9.02;;;7.00;81.70;;;;;;4932632;29;20304;-70
2022/03/14 09:16:37;;;;;;;9.85;8.65;;;7.10;80.80;;;;;;4931742;29;20261;-69
2022/03/14 09:19:05;;;;;;;9.70;8.70;;;7.20;81.00;;;;;;4938616;29;20217;-70
2022/03/14 09:21:33;;;;;;;12.50;9.68;;;7.30;80.70;;;;;;4942592;28;20233;-70
2022/03/14 09:24:00;;;;;;;13.30;10.10;;;7.40;81.30;;;;;;4949804;28;20549;-70
2022/03/14 09:26:27;;;;;;;12.20;10.30;;;7.50;81.70;;;;;;4933882;29;20699;-68
2022/03/14 09:28:54;;;;;;;13.13;11.40;;;7.60;81.70;;;;;;4935218;29;20213;-68
2022/03/14 09:31:21;;;;;;;17.17;11.98;;;7.70;82.60;;;;;;4933070;29;20711;-69
2022/03/14 09:33:48;;;;;;;14.05;11.38;;;7.80;80.30;;;;;;4932925;29;20236;-69
2022/03/14 09:36:16;;;;;;;14.77;12.55;;;7.90;80.20;;;;;;4934285;29;20265;-70
2022/03/14 09:38:44;;;;;;;11.90;9.73;;;7.90;80.50;;;;;;4936731;29;20216;-69
2022/03/14 09:41:13;;;;;;;11.13;10.02;;;7.90;80.70;;;;;;4935904;29;20648;-70
2022/03/14 09:43:41;;;;;;;15.20;10.25;;;8.00;81.50;;;;;;4936819;29;20214;-70
2022/03/14 09:46:08;;;;;;;12.02;9.70;;;8.10;81.50;;;;;;4936423;29;20257;-68
2022/03/14 09:48:39;;;;;;;12.25;7.15;;;8.10;81.80;;;;;;4936724;29;20218;-67
2022/03/14 09:51:07;;;;;;;10.32;9.32;;;8.20;80.30;;;;;;4936875;29;20582;-66
2022/03/14 09:53:37;;;;;;;10.07;8.90;;;8.20;80.10;;;;;;4955712;28;20723;-66
2022/03/14 09:56:04;;;;;;;10.63;7.95;;;8.30;81.70;;;;;;4955378;28;20220;-67
2022/03/14 09:58:31;;;;;;;11.32;9.00;;;8.40;82.60;;;;;;4949741;28;20213;-67
2022/03/14 10:01:03;;;;;;;12.00;9.15;;;8.40;83.50;;;;;;4954769;28;20233;-68
2022/03/14 10:03:30;;;;;;;11.30;10.13;;;8.50;84.90;;;;;;4955054;28;20213;-68
2022/03/14 10:05:56;;;;;;;10.82;9.77;;;8.60;86.00;;;;;;4955333;28;20219;-67
2022/03/14 10:08:24;;;;;;;20.00;16.38;;;8.80;86.90;;;;;;4954518;28;20209;-67
2022/03/14 10:10:52;;;;;;;11.48;9.18;;;9.10;88.30;;;;;;4954278;28;20713;-67
2022/03/14 10:13:18;;;;;;;10.38;9.38;;;9.40;89.70;;;;;;4955317;28;20260;-67
2022/03/14 10:15:45;;;;;;;13.23;11.23;;;9.50;88.30;;;;;;4955258;28;20229;-67
2022/03/14 10:18:14;;;;;;;11.35;9.90;;;9.60;88.20;;;;;;4954858;28;20205;-67
2022/03/14 10:20:55;;;;;;;10.70;9.63;;;9.70;86.10;;;;;;4954714;28;20545;-67
2022/03/14 10:23:33;;;;;;;10.90;9.00;;;9.90;87.30;;;;;;4950479;28;20829;-68
2022/03/14 10:26:01;;;;;;;13.77;10.20;;;10.00;86.70;;;;;;4954477;28;20670;-68
2022/03/14 10:28:31;;;;;;;13.43;12.13;;;10.20;87.30;;;;;;4952733;28;20320;-67
2022/03/14 10:31:02;;;;;;;11.30;10.20;;;10.30;87.70;;;;;;4954055;28;20981;-68
2022/03/14 10:33:30;;;;;;;10.23;9.10;;;10.30;87.50;;;;;;4954407;28;20656;-68
2022/03/14 10:35:57;;;;;;;14.55;13.07;;;10.30;88.20;;;;;;4954875;28;20268;-68
2022/03/14 10:38:25;;;;;;;11.80;10.45;;;10.20;88.80;;;;;;4954438;28;20205;-67
2022/03/14 10:40:52;;;;;;;11.05;8.80;;;10.20;89.90;;;;;;4953757;28;20472;-67
2022/03/14 10:43:25;;;;;;;12.82;10.68;;;10.20;90.50;;;;;;4954514;28;20564;-68
2022/03/14 10:45:53;;;;;;;9.45;8.65;;;10.20;91.00;;;;;;4952159;28;20224;-68
2022/03/14 10:48:32;;;;;;;16.83;12.52;;;10.30;91.20;;;;;;4942317;28;20270;-68
2022/03/14 10:51:04;;;;;;;10.20;9.15;;;10.30;91.80;;;;;;4934128;29;20233;-67
2022/03/14 10:53:31;;;;;;;9.75;8.75;;;10.40;92.50;;;;;;4950604;28;20220;-68
2022/03/14 10:55:59;;;;;;;10.15;7.95;;;10.40;92.30;;;;;;4951576;28;20714;-68
2022/03/14 10:58:33;;;;;;;10.07;9.07;;;10.50;92.90;;;;;;4941974;29;20209;-68
2022/03/14 11:01:01;;;;;;;8.40;7.60;;;10.60;93.40;;;;;;4942530;29;20508;-68
2022/03/14 11:03:29;;;;;;;8.98;8.18;;;10.70;93.50;;;;;;4946985;29;20525;-69
2022/03/14 11:06:01;;;;;;;10.93;8.43;;;10.80;93.40;;;;;;4944466;28;20206;-69
2022/03/14 11:08:33;;;;;;;15.43;13.93;;;10.90;93.70;;;;;;4937287;28;20466;-69
2022/03/14 11:11:02;;;;;;;10.27;9.40;;;10.90;93.70;;;;;;4943355;28;20496;-68
2022/03/14 11:13:30;;;;;;;9.83;8.57;;;11.00;93.80;;;;;;4935143;29;20488;-69
2022/03/14 11:15:57;;;;;;;9.70;8.80;;;11.10;93.60;;;;;;4935129;29;20491;-69
2022/03/14 11:18:25;;;;;;;9.43;8.63;;;11.20;94.30;;;;;;4935640;29;20536;-68
2022/03/14 11:20:53;;;;;;;9.20;8.30;;;11.20;94.60;;;;;;4952149;28;20484;-68
2022/03/14 11:23:21;;;;;;;9.70;8.80;;;11.30;94.80;;;;;;4953903;28;20472;-67
2022/03/14 11:25:48;;;;;;;8.10;7.40;;;11.30;96.00;;;;;;4945171;28;20468;-68
2022/03/14 11:28:17;;;;;;;7.73;7.13;;;11.40;99.90;;;;;;4936124;29;20529;-68
2022/03/14 11:30:59;;;;;;;8.10;7.43;;;11.50;99.90;;;;;;4934083;29;20481;-69
2022/03/14 11:33:27;;;;;;;7.43;6.73;;;11.60;99.90;;;;;;4933923;29;20998;-67
2022/03/14 11:35:54;;;;;;;8.57;7.70;;;11.60;99.90;;;;;;4934399;29;20492;-67
2022/03/14 11:38:20;;;;;;;8.43;7.63;;;11.60;99.90;;;;;;4934451;29;20469;-68
2022/03/14 11:40:51;;;;;;;10.17;7.33;;;11.60;99.90;;;;;;4934269;29;20556;-69
2022/03/14 11:43:18;;;;;;;7.70;6.90;;;11.60;99.90;;;;;;4945708;29;20465;-70
2022/03/14 11:45:47;;;;;;;9.40;8.10;;;11.50;99.90;;;;;;4938493;28;20524;-69
2022/03/14 11:48:14;;;;;;;7.20;6.50;;;11.50;99.90;;;;;;4938305;29;20523;-70
2022/03/14 11:50:43;;;;;;;8.47;7.70;;;11.40;99.90;;;;;;4938807;28;20481;-69
2022/03/14 11:53:10;;;;;;;8.43;7.63;;;11.30;99.90;;;;;;4934156;29;20501;-69
2022/03/14 11:55:51;;;;;;;8.97;8.07;;;11.30;99.90;;;;;;4937083;29;20571;-69
2022/03/14 11:58:34;;;;;;;8.82;7.78;;;11.20;99.90;;;;;;4945043;28;20887;-69
2022/03/14 12:01:14;;;;;;;7.88;7.03;;;11.00;99.90;;;;;;4952567;28;20243;-69
2022/03/14 12:03:44;;;;;;;9.38;8.05;;;10.90;99.90;;;;;;4936040;28;20237;-70
2022/03/14 12:06:10;;;;;;;8.20;7.32;;;10.90;99.90;;;;;;4936286;28;20209;-69
2022/03/14 12:08:52;;;;;;;10.98;8.77;;;10.80;99.90;;;;;;4947772;28;20205;-67
2022/03/14 12:11:41;;;;;;;9.38;7.30;;;10.70;99.90;;;;;;4969108;28;20232;-71
2022/03/14 12:14:14;;;;;;;8.18;7.45;;;10.70;99.90;;;;;;4938847;28;20268;-71
2022/03/14 12:16:43;;;;;;;8.30;7.57;;;10.60;99.90;;;;;;4934626;28;20289;-71
2022/03/14 12:19:30;;;;;;;10.20;8.35;;;10.50;99.90;;;;;;4938577;29;20220;-70
2022/03/14 12:21:57;;;;;;;10.52;9.43;;;10.50;99.90;;;;;;4950745;28;20632;-71
2022/03/14 12:24:45;;;;;;;9.32;8.38;;;10.50;99.90;;;;;;4939165;28;20197;-69
2022/03/14 12:27:20;;;;;;;11.57;10.40;;;10.40;99.90;;;;;;4940558;29;20312;-70
2022/03/14 12:29:48;;;;;;;10.65;9.45;;;10.40;99.90;;;;;;4952092;28;20212;-71
2022/03/14 12:32:35;;;;;;;10.52;8.52;;;10.40;99.90;;;;;;4950921;28;20244;-71
2022/03/14 12:35:08;;;;;;;9.18;7.88;;;10.30;99.90;;;;;;4951914;28;20300;-70
2022/03/14 12:37:46;;;;;;;8.85;7.95;;;10.30;99.90;;;;;;4935540;28;20675;-70
2022/03/14 12:40:15;;;;;;;10.70;8.70;;;10.30;99.90;;;;;;4940295;29;20211;-70
2022/03/14 12:42:43;;;;;;;9.55;8.63;;;10.30;99.90;;;;;;4942901;28;20209;-71
2022/03/14 12:45:24;;;;;;;10.68;9.38;;;10.20;99.90;;;;;;4947505;29;20208;-71
2022/03/14 12:47:55;;;;;;;9.77;8.82;;;10.20;99.90;;;;;;4947803;28;20288;-69
2022/03/14 12:50:53;;;;;;;10.98;9.68;;;10.20;99.90;;;;;;4951372;28;20638;-69
2022/03/14 12:53:37;;;;;;;13.50;11.77;;;10.20;99.90;;;;;;4952295;29;20215;-69
2022/03/14 12:56:11;;;;;;;11.70;10.50;;;10.20;99.90;;;;;;4951841;28;20268;-70
2022/03/14 12:58:37;;;;;;;11.27;10.20;;;10.20;99.90;;;;;;4943467;28;20273;-70
2022/03/14 13:01:06;;;;;;;14.20;11.50;;;10.20;99.90;;;;;;4939850;29;20300;-70
2022/03/14 13:03:36;;;;;;;12.35;10.13;;;10.20;99.90;;;;;;4932826;29;20212;-69
2022/03/14 13:06:04;;;;;;;14.05;10.88;;;10.20;99.90;;;;;;4933250;29;20228;-70
2022/03/14 13:08:31;;;;;;;12.65;11.07;;;10.20;99.90;;;;;;4947131;29;20248;-70
2022/03/14 13:11:00;;;;;;;12.50;10.70;;;10.20;99.90;;;;;;4950414;28;20232;-70
2022/03/14 13:13:29;;;;;;;13.65;11.95;;;10.20;99.90;;;;;;4944111;28;20689;-69
2022/03/14 13:16:07;;;;;;;13.32;12.02;;;10.20;99.90;;;;;;4933235;29;20233;-70
2022/03/14 13:18:37;;;;;;;13.70;12.05;;;10.20;99.90;;;;;;4934658;29;20216;-70
2022/03/14 13:21:12;;;;;;;14.55;13.07;;;10.20;99.90;;;;;;4945191;29;20604;-70
2022/03/14 13:23:39;;;;;;;14.73;13.23;;;10.20;99.90;;;;;;4946041;28;20717;-67
2022/03/14 13:26:05;;;;;;;14.77;11.60;;;10.20;99.90;;;;;;4948253;28;20201;-69
2022/03/14 13:28:34;;;;;;;13.38;11.88;;;10.20;99.90;;;;;;4938949;28;20647;-68
2022/03/14 13:31:02;;;;;;;13.98;12.55;;;10.20;99.90;;;;;;4931927;29;20230;-69
2022/03/14 13:33:31;;;;;;;14.65;13.15;;;10.20;99.90;;;;;;4948866;29;20583;-70
2022/03/14 13:36:00;;;;;;;15.52;13.95;;;10.20;99.90;;;;;;4951649;28;20648;-69
2022/03/14 13:38:32;;;;;;;15.25;13.05;;;10.20;99.90;;;;;;4955719;28;20722;-69
2022/03/14 13:41:00;;;;;;;21.45;18.77;;;10.20;99.90;;;;;;4963820;28;20312;-69
2022/03/14 13:43:27;;;;;;;12.70;11.45;;;10.20;99.90;;;;;;4971124;28;20635;-70
2022/03/14 13:46:25;;;;;;;15.13;11.88;;;10.20;99.90;;;;;;4951122;28;20213;-69
2022/03/14 13:48:52;;;;;;;14.75;11.65;;;10.20;99.90;;;;;;4952414;28;20394;-70
2022/03/14 13:51:21;;;;;;;17.83;13.57;;;10.10;99.90;;;;;;4950916;28;20232;-70
2022/03/14 13:53:48;;;;;;;14.15;11.82;;;10.10;99.90;;;;;;4950033;28;20280;-68
2022/03/14 13:56:15;;;;;;;17.90;13.73;;;10.10;99.90;;;;;;4948810;28;20225;-68
2022/03/14 13:58:51;;;;;;;15.27;13.75;;;10.20;99.90;;;;;;4950650;28;20372;-70
2022/03/14 14:01:18;;;;;;;28.77;20.73;;;10.20;99.90;;;;;;4947386;28;20315;-69
2022/03/14 14:03:47;;;;;;;15.35;13.55;;;10.10;99.90;;;;;;4933026;29;20201;-71
2022/03/14 14:06:15;;;;;;;15.15;13.15;;;10.10;99.90;;;;;;4941842;29;20292;-71
2022/03/14 14:08:42;;;;;;;12.85;11.50;;;10.10;99.90;;;;;;4943319;29;20236;-70
2022/03/14 14:11:09;;;;;;;14.05;11.48;;;10.10;99.90;;;;;;4946399;29;20769;-71
2022/03/14 14:13:49;;;;;;;11.40;10.30;;;10.10;99.90;;;;;;4951647;28;20675;-70
2022/03/14 14:16:20;;;;;;;11.93;10.38;;;10.10;99.90;;;;;;4932098;29;20237;-71
2022/03/14 14:19:08;;;;;;;14.70;12.10;;;10.00;99.90;;;;;;4949505;29;20675;-70
2022/03/14 14:21:35;;;;;;;12.40;11.10;;;10.00;99.90;;;;;;4946686;28;20249;-71
2022/03/14 14:24:05;;;;;;;16.05;11.85;;;10.00;99.90;;;;;;4945004;28;20297;-71
2022/03/14 14:26:33;;;;;;;18.95;14.60;;;9.90;99.90;;;;;;4935478;29;20805;-71
2022/03/14 14:29:00;;;;;;;34.85;21.98;;;9.90;99.90;;;;;;4937244;29;20210;-70
2022/03/14 14:31:27;;;;;;;22.63;16.73;;;10.00;99.90;;;;;;4943618;29;20323;-71
2022/03/14 14:33:55;;;;;;;16.38;14.32;;;10.00;99.90;;;;;;4952456;28;20209;-70
2022/03/14 14:36:22;;;;;;;22.50;16.50;;;10.00;99.90;;;;;;4954531;29;20225;-70
2022/03/14 14:38:48;;;;;;;20.42;15.05;;;10.00;99.90;;;;;;4940780;28;20210;-71
2022/03/14 14:41:15;;;;;;;22.10;17.30;;;9.90;99.90;;;;;;4934613;29;20245;-71
2022/03/14 14:43:43;;;;;;;19.92;14.07;;;9.90;99.90;;;;;;4935537;29;20214;-71
2022/03/14 14:46:10;;;;;;;17.65;14.60;;;9.80;99.90;;;;;;4936540;29;20240;-71
2022/03/14 14:48:37;;;;;;;17.42;14.07;;;9.70;99.90;;;;;;4946819;29;20210;-70
2022/03/14 14:51:06;;;;;;;21.45;14.55;;;9.60;99.90;;;;;;4949370;28;20691;-71
2022/03/14 14:53:35;;;;;;;15.55;12.60;;;9.50;99.90;;;;;;4935512;29;20214;-71
2022/03/14 14:56:02;;;;;;;15.25;12.18;;;9.40;99.90;;;;;;4937860;29;20229;-70
2022/03/14 14:58:29;;;;;;;17.20;12.93;;;9.40;99.90;;;;;;4954126;28;20271;-70
2022/03/14 15:00:56;;;;;;;11.40;9.93;;;9.30;99.90;;;;;;4950301;28;20667;-70
2022/03/14 15:03:23;;;;;;;15.88;12.15;;;9.20;99.90;;;;;;4946994;28;20292;-70
2022/03/14 15:05:51;;;;;;;17.52;13.77;;;9.20;99.90;;;;;;4945792;29;20557;-70
2022/03/14 15:08:19;;;;;;;22.05;15.73;;;9.10;99.90;;;;;;4964009;28;20669;-71
2022/03/14 15:10:47;;;;;;;14.95;11.82;;;9.10;99.90;;;;;;4954319;28;20729;-70
2022/03/14 15:13:14;;;;;;;19.95;14.73;;;9.10;99.90;;;;;;4946557;28;20229;-72
2022/03/14 15:15:41;;;;;;;26.27;15.52;;;9.10;99.90;;;;;;4934966;29;20657;-70
2022/03/14 15:18:07;;;;;;;17.45;12.75;;;9.10;99.90;;;;;;4942545;29;20209;-71
2022/03/14 15:20:35;;;;;;;23.25;16.13;;;9.10;99.90;;;;;;4952409;29;20217;-71
2022/03/14 15:23:01;;;;;;;14.10;11.00;;;9.10;99.90;;;;;;4954171;28;20395;-71
2022/03/14 15:25:30;;;;;;;26.90;16.30;;;9.00;99.90;;;;;;4953133;28;20276;-69
2022/03/14 15:27:56;;;;;;;21.23;14.88;;;9.00;99.90;;;;;;4953737;28;20269;-69
2022/03/14 15:30:23;;;;;;;24.60;17.30;;;9.00;99.90;;;;;;4947742;28;20201;-70
2022/03/14 15:32:50;;;;;;;21.92;15.07;;;9.10;99.90;;;;;;4946565;29;20653;-70
2022/03/14 15:35:18;;;;;;;17.88;15.20;;;9.10;99.90;;;;;;4952806;28;20213;-71
2022/03/14 15:37:45;;;;;;;17.88;14.82;;;9.10;99.90;;;;;;4946445;28;20295;-71
2022/03/14 15:40:13;;;;;;;74.22;44.67;;;9.10;99.90;;;;;;4952579;29;20205;-70
2022/03/14 15:42:41;;;;;;;19.05;14.35;;;9.10;99.90;;;;;;4952798;28;20225;-69
2022/03/14 15:45:08;;;;;;;20.02;17.92;;;9.10;99.90;;;;;;4953520;28;20217;-69
2022/03/14 15:47:35;;;;;;;18.30;12.13;;;9.10;99.90;;;;;;4943132;28;20213;-69
2022/03/14 15:50:02;;;;;;;30.83;25.33;;;9.10;99.90;;;;;;4935557;29;20210;-70
2022/03/14 15:52:31;;;;;;;19.27;14.52;;;9.00;99.90;;;;;;4949284;28;20227;-67
2022/03/14 15:54:58;;;;;;;14.65;13.10;;;8.90;99.90;;;;;;4944846;28;20210;-71
2022/03/14 15:57:25;;;;;;;15.57;11.60;;;9.10;99.90;;;;;;4941423;29;20596;-70
2022/03/14 15:59:53;;;;;;;12.55;11.10;;;9.00;99.90;;;;;;4945029;28;20224;-71
2022/03/14 16:02:20;;;;;;;14.15;11.30;;;9.00;99.90;;;;;;4946044;28;20225;-70
2022/03/14 16:04:46;;;;;;;13.95;11.18;;;9.00;99.90;;;;;;4934275;29;20518;-70
2022/03/14 16:07:13;;;;;;;13.77;10.63;;;8.90;99.90;;;;;;4936680;29;20312;-70
2022/03/14 16:09:40;;;;;;;11.23;9.80;;;8.90;99.90;;;;;;4948125;28;20296;-71
2022/03/14 16:12:07;;;;;;;14.57;10.45;;;8.90;99.90;;;;;;4951460;28;20295;-70
2022/03/14 16:14:34;;;;;;;12.10;10.20;;;8.90;99.90;;;;;;4934444;28;20206;-70
2022/03/14 16:17:02;;;;;;;14.18;10.70;;;8.90;99.90;;;;;;4933566;29;20252;-72
2022/03/14 16:19:29;;;;;;;12.50;10.65;;;8.90;99.90;;;;;;4934560;29;20202;-71
2022/03/14 16:21:56;;;;;;;15.57;11.73;;;8.90;99.90;;;;;;4933822;29;20242;-71
2022/03/14 16:24:22;;;;;;;13.93;10.40;;;8.90;99.90;;;;;;4934700;29;20205;-72
2022/03/14 16:26:50;;;;;;;14.48;11.32;;;8.80;99.90;;;;;;4933821;29;20221;-71
2022/03/14 16:29:17;;;;;;;12.95;10.70;;;8.80;99.90;;;;;;4948291;28;20662;-71
2022/03/14 16:31:44;;;;;;;14.05;10.75;;;8.80;99.90;;;;;;4952352;28;20221;-70
2022/03/14 16:34:12;;;;;;;12.63;9.90;;;8.80;99.90;;;;;;4948417;28;20349;-71
2022/03/14 16:36:38;;;;;;;13.90;11.05;;;8.80;99.90;;;;;;4952473;28;20237;-72
2022/03/14 16:39:05;;;;;;;15.80;11.95;;;8.70;99.90;;;;;;4937423;28;20257;-71
2022/03/14 16:41:32;;;;;;;14.32;12.27;;;8.70;99.90;;;;;;4950641;28;20729;-71
2022/03/14 16:43:58;;;;;;;13.70;11.10;;;8.70;99.90;;;;;;4939425;28;20667;-71
2022/03/14 16:46:25;;;;;;;13.30;10.75;;;8.70;99.90;;;;;;4933163;29;20206;-71
2022/03/14 16:48:52;;;;;;;16.25;11.65;;;8.70;99.90;;;;;;4943911;29;20213;-71
2022/03/14 16:51:20;;;;;;;12.85;11.40;;;8.70;99.90;;;;;;4946705;28;20252;-70
2022/03/14 16:53:47;;;;;;;14.05;9.88;;;8.70;99.90;;;;;;4935628;29;20210;-71
2022/03/14 16:56:15;;;;;;;15.57;11.65;;;8.60;99.90;;;;;;4934036;29;20222;-71
2022/03/14 16:58:41;;;;;;;13.25;10.63;;;8.60;99.90;;;;;;4947671;28;20228;-71
2022/03/14 17:01:08;;;;;;;16.38;10.98;;;8.60;99.90;;;;;;4953697;28;20233;-70
2022/03/14 17:03:35;;;;;;;12.65;9.40;;;8.60;99.90;;;;;;4951879;28;20209;-70
2022/03/14 17:06:01;;;;;;;15.85;10.77;;;8.60;99.90;;;;;;4939016;28;20213;-71
2022/03/14 17:08:29;;;;;;;13.60;10.40;;;8.50;99.90;;;;;;4945920;28;20270;-71
2022/03/14 17:10:56;;;;;;;14.93;10.70;;;8.50;99.90;;;;;;4947821;28;20244;-71
2022/03/14 17:13:23;;;;;;;12.93;10.07;;;8.50;99.90;;;;;;4935777;28;20210;-70
2022/03/14 17:15:51;;;;;;;18.13;11.57;;;8.50;99.90;;;;;;4942153;29;20209;-71
2022/03/14 17:18:20;;;;;;;15.35;11.13;;;8.50;99.90;;;;;;4932877;29;20300;-70
2022/03/14 17:20:48;;;;;;;13.30;11.23;;;8.50;99.90;;;;;;4940682;28;20299;-69
2022/03/14 17:23:17;;;;;;;19.02;12.68;;;8.40;99.90;;;;;;4932964;29;20214;-69
2022/03/14 17:25:47;;;;;;;13.85;11.60;;;8.40;99.90;;;;;;4941840;28;20212;-70
2022/03/14 17:28:15;;;;;;;16.35;11.02;;;8.40;99.90;;;;;;4939862;28;20659;-70
2022/03/14 17:30:43;;;;;;;19.02;12.55;;;8.40;99.90;;;;;;4951421;28;20252;-70
2022/03/14 17:33:11;;;;;;;20.88;12.90;;;8.40;99.90;;;;;;4945508;28;20246;-70
2022/03/14 17:35:38;;;;;;;19.65;12.10;;;8.40;99.90;;;;;;4947672;28;20258;-70
2022/03/14 17:38:06;;;;;;;15.57;11.45;;;8.40;99.90;;;;;;4951018;28;20296;-70
2022/03/14 17:40:34;;;;;;;12.45;10.52;;;8.40;99.90;;;;;;4931916;29;20205;-70
2022/03/14 17:43:02;;;;;;;13.10;10.38;;;8.30;99.90;;;;;;4933566;28;20694;-70
2022/03/14 17:45:29;;;;;;;16.17;11.20;;;8.30;99.90;;;;;;4949303;28;20568;-70
2022/03/14 17:47:56;;;;;;;16.70;10.95;;;8.30;99.90;;;;;;4970133;28;20196;-71